sensor_id;sensor_type;location;lat;lon;timestamp;temperature;humidity
20911;DHT22;10615;42.702;23.314;2022-10-22T00:00:16;9.40;98.10
20911;DHT22;10615;42.702;23.314;2022-10-22T00:01:17;9.40;98.10
20911;DHT22;10615;42.702;23.314;2022-10-22T00:02:19;9.40;98.00
20911;DHT22;10615;42.702;23.314;2022-10-22T00:03:20;9.40;98.00
20911;DHT22;10615;42.702;23.314;2022-10-22T00:04:20;9.40;97.90
20911;DHT22;10615;42.702;23.314;2022-10-22T00:05:21;9.40;97.80
20911;DHT22;10615;42.702;23.314;2022-10-22T00:06:22;9.30;97.80
20911;DHT22;10615;42.702;23.314;2022-10-22T00:07:22;9.40;97.90
20911;DHT22;10615;42.702;23.314;2022-10-22T00:08:23;9.30;97.90
20911;DHT22;10615;42.702;23.314;2022-10-22T00:09:24;9.30;97.90
20911;DHT22;10615;42.702;23.314;2022-10-22T00:10:25;9.30;98.00
20911;DHT22;10615;42.702;23.314;2022-10-22T00:11:25;9.30;98.10
20911;DHT22;10615;42.702;23.314;2022-10-22T00:12:26;9.30;98.20
20911;DHT22;10615;42.702;23.314;2022-10-22T00:13:27;9.30;98.30
20911;DHT22;10615;42.702;23.314;2022-10-22T00:14:27;9.20;98.30
20911;DHT22;10615;42.702;23.314;2022-10-22T00:15:28;9.20;98.30
20911;DHT22;10615;42.702;23.314;2022-10-22T00:16:29;9.20;98.40
20911;DHT22;10615;42.702;23.314;2022-10-22T00:17:29;9.20;98.40
20911;DHT22;10615;42.702;23.314;2022-10-22T00:18:30;9.20;98.50
20911;DHT22;10615;42.702;23.314;2022-10-22T00:19:31;9.20;98.50
20911;DHT22;10615;42.702;23.314;2022-10-22T00:20:31;9.20;98.60
20911;DHT22;10615;42.702;23.314;2022-10-22T00:21:32;9.20;98.60
20911;DHT22;10615;42.702;23.314;2022-10-22T00:22:33;9.20;98.60
20911;DHT22;10615;42.702;23.314;2022-10-22T00:23:34;9.10;98.60
20911;DHT22;10615;42.702;23.314;2022-10-22T00:24:36;9.10;98.80
20911;DHT22;10615;42.702;23.314;2022-10-22T00:25:37;9.10;98.80
20911;DHT22;10615;42.702;23.314;2022-10-22T00:26:37;9.20;98.90
20911;DHT22;10615;42.702;23.314;2022-10-22T00:27:39;9.20;98.90
20911;DHT22;10615;42.702;23.314;2022-10-22T00:28:40;9.20;98.90
20911;DHT22;10615;42.702;23.314;2022-10-22T00:29:41;9.20;98.90
20911;DHT22;10615;42.702;23.314;2022-10-22T00:30:41;9.20;98.90
20911;DHT22;10615;42.702;23.314;2022-10-22T00:31:42;9.20;98.80
20911;DHT22;10615;42.702;23.314;2022-10-22T00:32:46;9.20;98.80
20911;DHT22;10615;42.702;23.314;2022-10-22T00:33:46;9.20;98.70
20911;DHT22;10615;42.702;23.314;2022-10-22T00:34:47;9.20;98.70
20911;DHT22;10615;42.702;23.314;2022-10-22T00:35:48;9.20;98.60
20911;DHT22;10615;42.702;23.314;2022-10-22T00:36:49;9.20;98.70
20911;DHT22;10615;42.702;23.314;2022-10-22T00:37:50;9.20;98.80
20911;DHT22;10615;42.702;23.314;2022-10-22T00:38:51;9.20;98.80
20911;DHT22;10615;42.702;23.314;2022-10-22T00:39:51;9.20;98.70
20911;DHT22;10615;42.702;23.314;2022-10-22T00:40:52;9.20;98.70
20911;DHT22;10615;42.702;23.314;2022-10-22T00:41:54;9.10;98.80
20911;DHT22;10615;42.702;23.314;2022-10-22T00:42:55;9.10;98.90
20911;DHT22;10615;42.702;23.314;2022-10-22T00:44:02;9.20;99.00
20911;DHT22;10615;42.702;23.314;2022-10-22T00:46:09;9.10;99.00
20911;DHT22;10615;42.702;23.314;2022-10-22T00:47:10;9.10;99.00
20911;DHT22;10615;42.702;23.314;2022-10-22T00:48:15;9.10;98.90
20911;DHT22;10615;42.702;23.314;2022-10-22T00:49:18;9.10;98.90
20911;DHT22;10615;42.702;23.314;2022-10-22T00:50:45;9.10;98.90
20911;DHT22;10615;42.702;23.314;2022-10-22T00:51:47;9.10;99.00
20911;DHT22;10615;42.702;23.314;2022-10-22T00:52:48;9.10;98.90
20911;DHT22;10615;42.702;23.314;2022-10-22T00:53:52;9.10;99.00
20911;DHT22;10615;42.702;23.314;2022-10-22T00:54:56;9.10;99.10
20911;DHT22;10615;42.702;23.314;2022-10-22T00:55:57;9.10;99.10
20911;DHT22;10615;42.702;23.314;2022-10-22T00:56:58;9.00;99.10
20911;DHT22;10615;42.702;23.314;2022-10-22T00:58:00;9.10;99.20
20911;DHT22;10615;42.702;23.314;2022-10-22T00:59:02;9.00;99.20
20911;DHT22;10615;42.702;23.314;2022-10-22T01:00:04;9.00;99.20
20911;DHT22;10615;42.702;23.314;2022-10-22T01:01:06;9.00;99.30
20911;DHT22;10615;42.702;23.314;2022-10-22T01:02:08;9.00;99.30
20911;DHT22;10615;42.702;23.314;2022-10-22T01:03:08;9.00;99.20
20911;DHT22;10615;42.702;23.314;2022-10-22T01:04:09;9.00;99.20
20911;DHT22;10615;42.702;23.314;2022-10-22T01:05:10;9.00;99.20
20911;DHT22;10615;42.702;23.314;2022-10-22T01:06:17;9.00;99.30
20911;DHT22;10615;42.702;23.314;2022-10-22T01:07:20;9.00;99.40
20911;DHT22;10615;42.702;23.314;2022-10-22T01:08:31;9.00;99.40
20911;DHT22;10615;42.702;23.314;2022-10-22T01:13:30;9.00;99.30
20911;DHT22;10615;42.702;23.314;2022-10-22T01:15:44;9.00;99.30
20911;DHT22;10615;42.702;23.314;2022-10-22T01:17:07;9.00;99.20
20911;DHT22;10615;42.702;23.314;2022-10-22T01:18:22;9.00;99.30
20911;DHT22;10615;42.702;23.314;2022-10-22T01:21:13;8.90;99.20
20911;DHT22;10615;42.702;23.314;2022-10-22T01:29:12;8.90;99.40
20911;DHT22;10615;42.702;23.314;2022-10-22T01:30:15;8.90;99.50
20911;DHT22;10615;42.702;23.314;2022-10-22T01:31:17;8.90;99.50
20911;DHT22;10615;42.702;23.314;2022-10-22T01:32:21;8.90;99.50
20911;DHT22;10615;42.702;23.314;2022-10-22T01:33:24;8.90;99.60
20911;DHT22;10615;42.702;23.314;2022-10-22T01:34:27;8.90;99.60
20911;DHT22;10615;42.702;23.314;2022-10-22T01:35:34;8.90;99.60
20911;DHT22;10615;42.702;23.314;2022-10-22T01:36:36;8.90;99.60
20911;DHT22;10615;42.702;23.314;2022-10-22T01:37:45;8.80;99.60
20911;DHT22;10615;42.702;23.314;2022-10-22T01:38:47;8.80;99.70
20911;DHT22;10615;42.702;23.314;2022-10-22T01:39:49;8.80;99.80
20911;DHT22;10615;42.702;23.314;2022-10-22T01:40:51;8.80;99.80
20911;DHT22;10615;42.702;23.314;2022-10-22T01:41:57;8.80;99.80
20911;DHT22;10615;42.702;23.314;2022-10-22T01:43:06;8.80;99.90
20911;DHT22;10615;42.702;23.314;2022-10-22T01:44:25;8.80;99.90
20911;DHT22;10615;42.702;23.314;2022-10-22T01:45:28;8.80;99.90
20911;DHT22;10615;42.702;23.314;2022-10-22T01:46:30;8.80;99.90
20911;DHT22;10615;42.702;23.314;2022-10-22T01:47:51;8.80;99.90
20911;DHT22;10615;42.702;23.314;2022-10-22T01:50:11;8.80;99.90
20911;DHT22;10615;42.702;23.314;2022-10-22T01:51:29;8.80;99.90
20911;DHT22;10615;42.702;23.314;2022-10-22T01:52:59;8.80;99.90
20911;DHT22;10615;42.702;23.314;2022-10-22T01:55:42;8.80;99.90
20911;DHT22;10615;42.702;23.314;2022-10-22T01:56:58;8.70;99.90
20911;DHT22;10615;42.702;23.314;2022-10-22T01:58:32;8.70;99.90
20911;DHT22;10615;42.702;23.314;2022-10-22T01:59:40;8.70;99.90
20911;DHT22;10615;42.702;23.314;2022-10-22T02:00:47;8.70;99.90
20911;DHT22;10615;42.702;23.314;2022-10-22T02:03:05;8.70;99.90
20911;DHT22;10615;42.702;23.314;2022-10-22T02:04:56;8.80;99.90
20911;DHT22;10615;42.702;23.314;2022-10-22T02:05:57;8.70;99.90
20911;DHT22;10615;42.702;23.314;2022-10-22T02:07:02;8.70;99.90
20911;DHT22;10615;42.702;23.314;2022-10-22T02:08:13;8.80;99.90
20911;DHT22;10615;42.702;23.314;2022-10-22T02:09:16;8.80;99.90
20911;DHT22;10615;42.702;23.314;2022-10-22T02:10:19;8.80;99.90
20911;DHT22;10615;42.702;23.314;2022-10-22T02:11:20;8.80;99.90
20911;DHT22;10615;42.702;23.314;2022-10-22T02:12:22;8.80;99.90
20911;DHT22;10615;42.702;23.314;2022-10-22T02:13:27;8.80;99.90
20911;DHT22;10615;42.702;23.314;2022-10-22T02:14:30;8.80;99.90
20911;DHT22;10615;42.702;23.314;2022-10-22T02:15:34;8.80;99.90
20911;DHT22;10615;42.702;23.314;2022-10-22T02:16:40;8.80;99.90
20911;DHT22;10615;42.702;23.314;2022-10-22T02:17:44;8.80;99.90
20911;DHT22;10615;42.702;23.314;2022-10-22T02:18:46;8.80;99.90
20911;DHT22;10615;42.702;23.314;2022-10-22T02:19:56;8.70;99.90
20911;DHT22;10615;42.702;23.314;2022-10-22T02:20:59;8.70;99.90
20911;DHT22;10615;42.702;23.314;2022-10-22T02:22:01;8.70;99.90
20911;DHT22;10615;42.702;23.314;2022-10-22T02:23:03;8.70;99.90
20911;DHT22;10615;42.702;23.314;2022-10-22T02:24:04;8.70;99.90
20911;DHT22;10615;42.702;23.314;2022-10-22T02:25:06;8.70;99.90
20911;DHT22;10615;42.702;23.314;2022-10-22T02:26:18;8.70;99.90
20911;DHT22;10615;42.702;23.314;2022-10-22T02:27:44;8.70;99.90
20911;DHT22;10615;42.702;23.314;2022-10-22T02:29:03;8.60;99.90
20911;DHT22;10615;42.702;23.314;2022-10-22T02:30:07;8.60;99.90
20911;DHT22;10615;42.702;23.314;2022-10-22T02:31:19;8.60;99.90
20911;DHT22;10615;42.702;23.314;2022-10-22T02:32:25;8.70;99.90
20911;DHT22;10615;42.702;23.314;2022-10-22T02:33:32;8.60;99.90
20911;DHT22;10615;42.702;23.314;2022-10-22T02:34:34;8.60;99.90
20911;DHT22;10615;42.702;23.314;2022-10-22T02:35:35;8.60;99.90
20911;DHT22;10615;42.702;23.314;2022-10-22T02:36:38;8.60;99.90
20911;DHT22;10615;42.702;23.314;2022-10-22T02:37:40;8.60;99.90
20911;DHT22;10615;42.702;23.314;2022-10-22T02:38:42;8.60;99.90
20911;DHT22;10615;42.702;23.314;2022-10-22T02:39:44;8.60;99.90
20911;DHT22;10615;42.702;23.314;2022-10-22T02:40:45;8.60;99.90
20911;DHT22;10615;42.702;23.314;2022-10-22T02:41:46;8.60;99.90
20911;DHT22;10615;42.702;23.314;2022-10-22T02:42:49;8.60;99.90
20911;DHT22;10615;42.702;23.314;2022-10-22T02:43:53;8.60;99.90
20911;DHT22;10615;42.702;23.314;2022-10-22T02:44:53;8.60;99.90
20911;DHT22;10615;42.702;23.314;2022-10-22T02:45:54;8.60;99.90
20911;DHT22;10615;42.702;23.314;2022-10-22T02:46:55;8.60;99.90
20911;DHT22;10615;42.702;23.314;2022-10-22T02:47:56;8.60;99.90
20911;DHT22;10615;42.702;23.314;2022-10-22T02:48:56;8.60;99.90
20911;DHT22;10615;42.702;23.314;2022-10-22T02:49:57;8.60;99.90
20911;DHT22;10615;42.702;23.314;2022-10-22T02:50:58;8.60;99.90
20911;DHT22;10615;42.702;23.314;2022-10-22T02:51:59;8.60;99.90
20911;DHT22;10615;42.702;23.314;2022-10-22T02:53:00;8.60;99.90
20911;DHT22;10615;42.702;23.314;2022-10-22T02:54:00;8.60;99.90
20911;DHT22;10615;42.702;23.314;2022-10-22T02:55:01;8.60;99.90
20911;DHT22;10615;42.702;23.314;2022-10-22T02:56:02;8.60;99.90
20911;DHT22;10615;42.702;23.314;2022-10-22T02:57:02;8.60;99.90
20911;DHT22;10615;42.702;23.314;2022-10-22T02:58:03;8.50;99.90
20911;DHT22;10615;42.702;23.314;2022-10-22T02:59:04;8.50;99.90
20911;DHT22;10615;42.702;23.314;2022-10-22T03:00:06;8.50;99.90
20911;DHT22;10615;42.702;23.314;2022-10-22T03:01:07;8.50;99.90
20911;DHT22;10615;42.702;23.314;2022-10-22T03:02:08;8.50;99.90
20911;DHT22;10615;42.702;23.314;2022-10-22T03:03:08;8.50;99.90
20911;DHT22;10615;42.702;23.314;2022-10-22T03:04:09;8.60;99.90
20911;DHT22;10615;42.702;23.314;2022-10-22T03:05:10;8.60;99.90
20911;DHT22;10615;42.702;23.314;2022-10-22T03:06:10;8.60;99.90
20911;DHT22;10615;42.702;23.314;2022-10-22T03:07:11;8.60;99.90
20911;DHT22;10615;42.702;23.314;2022-10-22T03:08:11;8.50;99.90
20911;DHT22;10615;42.702;23.314;2022-10-22T03:09:12;8.50;99.90
20911;DHT22;10615;42.702;23.314;2022-10-22T03:10:13;8.50;99.90
20911;DHT22;10615;42.702;23.314;2022-10-22T03:11:13;8.50;99.90
20911;DHT22;10615;42.702;23.314;2022-10-22T03:12:14;8.50;99.90
20911;DHT22;10615;42.702;23.314;2022-10-22T03:13:15;8.50;99.90
20911;DHT22;10615;42.702;23.314;2022-10-22T03:14:15;8.50;99.90
20911;DHT22;10615;42.702;23.314;2022-10-22T03:15:16;8.50;99.90
20911;DHT22;10615;42.702;23.314;2022-10-22T03:16:17;8.50;99.90
20911;DHT22;10615;42.702;23.314;2022-10-22T03:17:17;8.60;99.90
20911;DHT22;10615;42.702;23.314;2022-10-22T03:18:18;8.50;99.90
20911;DHT22;10615;42.702;23.314;2022-10-22T03:19:19;8.40;99.90
20911;DHT22;10615;42.702;23.314;2022-10-22T03:20:19;8.40;99.90
20911;DHT22;10615;42.702;23.314;2022-10-22T03:22:41;8.40;99.90
20911;DHT22;10615;42.702;23.314;2022-10-22T03:23:43;8.40;99.90
20911;DHT22;10615;42.702;23.314;2022-10-22T03:24:45;8.40;99.90
20911;DHT22;10615;42.702;23.314;2022-10-22T03:25:47;8.40;99.90
20911;DHT22;10615;42.702;23.314;2022-10-22T03:26:50;8.50;99.90
20911;DHT22;10615;42.702;23.314;2022-10-22T03:27:53;8.50;99.90
20911;DHT22;10615;42.702;23.314;2022-10-22T03:28:55;8.50;99.90
20911;DHT22;10615;42.702;23.314;2022-10-22T03:29:57;8.50;99.90
20911;DHT22;10615;42.702;23.314;2022-10-22T03:30:59;8.50;99.90
20911;DHT22;10615;42.702;23.314;2022-10-22T03:31:59;8.50;99.90
20911;DHT22;10615;42.702;23.314;2022-10-22T03:33:00;8.50;99.90
20911;DHT22;10615;42.702;23.314;2022-10-22T03:34:01;8.50;99.90
20911;DHT22;10615;42.702;23.314;2022-10-22T03:35:01;8.50;99.90
20911;DHT22;10615;42.702;23.314;2022-10-22T03:36:02;8.50;99.90
20911;DHT22;10615;42.702;23.314;2022-10-22T03:37:03;8.50;99.90
20911;DHT22;10615;42.702;23.314;2022-10-22T03:38:03;8.50;99.90
20911;DHT22;10615;42.702;23.314;2022-10-22T03:39:04;8.40;99.90
20911;DHT22;10615;42.702;23.314;2022-10-22T03:40:06;8.40;99.90
20911;DHT22;10615;42.702;23.314;2022-10-22T03:41:07;8.40;99.90
20911;DHT22;10615;42.702;23.314;2022-10-22T03:42:08;8.40;99.90
20911;DHT22;10615;42.702;23.314;2022-10-22T03:43:09;8.40;99.90
20911;DHT22;10615;42.702;23.314;2022-10-22T03:44:10;8.50;99.90
20911;DHT22;10615;42.702;23.314;2022-10-22T03:45:11;8.40;99.90
20911;DHT22;10615;42.702;23.314;2022-10-22T03:46:11;8.40;99.90
20911;DHT22;10615;42.702;23.314;2022-10-22T03:47:12;8.40;99.90
20911;DHT22;10615;42.702;23.314;2022-10-22T03:48:13;8.40;99.90
20911;DHT22;10615;42.702;23.314;2022-10-22T03:49:13;8.40;99.90
20911;DHT22;10615;42.702;23.314;2022-10-22T03:50:14;8.40;99.90
20911;DHT22;10615;42.702;23.314;2022-10-22T03:51:16;8.40;99.90
20911;DHT22;10615;42.702;23.314;2022-10-22T03:52:17;8.30;99.90
20911;DHT22;10615;42.702;23.314;2022-10-22T03:53:17;8.30;99.90
20911;DHT22;10615;42.702;23.314;2022-10-22T03:54:18;8.40;99.90
20911;DHT22;10615;42.702;23.314;2022-10-22T03:55:19;8.40;99.90
20911;DHT22;10615;42.702;23.314;2022-10-22T03:56:20;8.40;99.90
20911;DHT22;10615;42.702;23.314;2022-10-22T03:57:21;8.40;99.90
20911;DHT22;10615;42.702;23.314;2022-10-22T03:58:21;8.40;99.90
20911;DHT22;10615;42.702;23.314;2022-10-22T03:59:22;8.40;99.90
20911;DHT22;10615;42.702;23.314;2022-10-22T04:00:23;8.40;99.90
20911;DHT22;10615;42.702;23.314;2022-10-22T04:01:24;8.40;99.90
20911;DHT22;10615;42.702;23.314;2022-10-22T04:02:25;8.40;99.90
20911;DHT22;10615;42.702;23.314;2022-10-22T04:03:26;8.40;99.90
20911;DHT22;10615;42.702;23.314;2022-10-22T04:04:27;8.40;99.90
20911;DHT22;10615;42.702;23.314;2022-10-22T04:05:27;8.30;99.90
20911;DHT22;10615;42.702;23.314;2022-10-22T04:06:28;8.30;99.90
20911;DHT22;10615;42.702;23.314;2022-10-22T04:07:29;8.40;99.90
20911;DHT22;10615;42.702;23.314;2022-10-22T04:08:30;8.30;99.90
20911;DHT22;10615;42.702;23.314;2022-10-22T04:09:31;8.20;99.90
20911;DHT22;10615;42.702;23.314;2022-10-22T04:10:32;8.20;99.90
20911;DHT22;10615;42.702;23.314;2022-10-22T04:11:33;8.10;99.90
20911;DHT22;10615;42.702;23.314;2022-10-22T04:12:33;8.10;99.90
20911;DHT22;10615;42.702;23.314;2022-10-22T04:13:34;8.10;99.90
20911;DHT22;10615;42.702;23.314;2022-10-22T04:14:35;8.00;99.90
20911;DHT22;10615;42.702;23.314;2022-10-22T04:15:36;8.10;99.90
20911;DHT22;10615;42.702;23.314;2022-10-22T04:16:38;8.10;99.90
20911;DHT22;10615;42.702;23.314;2022-10-22T04:17:39;8.20;99.90
20911;DHT22;10615;42.702;23.314;2022-10-22T04:18:41;8.20;99.90
20911;DHT22;10615;42.702;23.314;2022-10-22T04:19:41;8.20;99.90
20911;DHT22;10615;42.702;23.314;2022-10-22T04:20:42;8.30;99.90
20911;DHT22;10615;42.702;23.314;2022-10-22T04:21:43;8.30;99.90
20911;DHT22;10615;42.702;23.314;2022-10-22T04:22:44;8.30;99.90
20911;DHT22;10615;42.702;23.314;2022-10-22T04:23:45;8.30;99.90
20911;DHT22;10615;42.702;23.314;2022-10-22T04:24:46;8.30;99.90
20911;DHT22;10615;42.702;23.314;2022-10-22T04:25:47;8.40;99.90
20911;DHT22;10615;42.702;23.314;2022-10-22T04:26:48;8.30;99.90
20911;DHT22;10615;42.702;23.314;2022-10-22T04:27:48;8.30;99.90
20911;DHT22;10615;42.702;23.314;2022-10-22T04:28:50;8.40;99.90
20911;DHT22;10615;42.702;23.314;2022-10-22T04:29:51;8.40;99.90
20911;DHT22;10615;42.702;23.314;2022-10-22T04:30:52;8.40;99.90
20911;DHT22;10615;42.702;23.314;2022-10-22T04:31:52;8.50;99.90
20911;DHT22;10615;42.702;23.314;2022-10-22T04:32:53;8.50;99.90
20911;DHT22;10615;42.702;23.314;2022-10-22T04:33:56;8.50;99.90
20911;DHT22;10615;42.702;23.314;2022-10-22T04:34:57;8.50;99.90
20911;DHT22;10615;42.702;23.314;2022-10-22T04:35:58;8.50;99.90
20911;DHT22;10615;42.702;23.314;2022-10-22T04:36:58;8.50;99.90
20911;DHT22;10615;42.702;23.314;2022-10-22T04:37:59;8.50;99.90
20911;DHT22;10615;42.702;23.314;2022-10-22T04:39:00;8.40;99.90
20911;DHT22;10615;42.702;23.314;2022-10-22T04:40:01;8.40;99.90
20911;DHT22;10615;42.702;23.314;2022-10-22T04:41:10;8.40;99.90
20911;DHT22;10615;42.702;23.314;2022-10-22T04:42:11;8.40;99.90
20911;DHT22;10615;42.702;23.314;2022-10-22T04:43:12;8.40;99.90
20911;DHT22;10615;42.702;23.314;2022-10-22T04:44:12;8.40;99.90
20911;DHT22;10615;42.702;23.314;2022-10-22T04:45:13;8.40;99.90
20911;DHT22;10615;42.702;23.314;2022-10-22T04:46:16;8.40;99.90
20911;DHT22;10615;42.702;23.314;2022-10-22T04:47:17;8.40;99.90
20911;DHT22;10615;42.702;23.314;2022-10-22T04:48:18;8.30;99.90
20911;DHT22;10615;42.702;23.314;2022-10-22T04:49:19;8.30;99.90
20911;DHT22;10615;42.702;23.314;2022-10-22T04:50:19;8.30;99.90
20911;DHT22;10615;42.702;23.314;2022-10-22T04:51:22;8.20;99.90
20911;DHT22;10615;42.702;23.314;2022-10-22T04:52:23;8.20;99.90
20911;DHT22;10615;42.702;23.314;2022-10-22T04:53:24;8.20;99.90
20911;DHT22;10615;42.702;23.314;2022-10-22T04:54:25;8.20;99.90
20911;DHT22;10615;42.702;23.314;2022-10-22T04:55:25;8.30;99.90
20911;DHT22;10615;42.702;23.314;2022-10-22T04:56:30;8.30;99.90
20911;DHT22;10615;42.702;23.314;2022-10-22T04:57:31;8.40;99.90
20911;DHT22;10615;42.702;23.314;2022-10-22T04:58:32;8.50;99.90
20911;DHT22;10615;42.702;23.314;2022-10-22T04:59:33;8.60;99.90
20911;DHT22;10615;42.702;23.314;2022-10-22T05:00:33;8.60;99.90
20911;DHT22;10615;42.702;23.314;2022-10-22T05:01:36;8.70;99.90
20911;DHT22;10615;42.702;23.314;2022-10-22T05:02:37;8.80;99.90
20911;DHT22;10615;42.702;23.314;2022-10-22T05:03:38;8.90;99.90
20911;DHT22;10615;42.702;23.314;2022-10-22T05:04:39;9.00;99.90
20911;DHT22;10615;42.702;23.314;2022-10-22T05:05:40;9.00;99.50
20911;DHT22;10615;42.702;23.314;2022-10-22T05:06:41;9.10;99.30
20911;DHT22;10615;42.702;23.314;2022-10-22T05:07:42;9.20;98.90
20911;DHT22;10615;42.702;23.314;2022-10-22T05:08:43;9.30;98.50
20911;DHT22;10615;42.702;23.314;2022-10-22T05:09:43;9.30;98.20
20911;DHT22;10615;42.702;23.314;2022-10-22T05:10:44;9.40;97.90
20911;DHT22;10615;42.702;23.314;2022-10-22T05:11:47;9.50;97.70
20911;DHT22;10615;42.702;23.314;2022-10-22T05:12:48;9.60;97.40
20911;DHT22;10615;42.702;23.314;2022-10-22T05:13:48;9.70;97.10
20911;DHT22;10615;42.702;23.314;2022-10-22T05:14:49;9.70;96.60
20911;DHT22;10615;42.702;23.314;2022-10-22T05:15:51;9.80;96.30
20911;DHT22;10615;42.702;23.314;2022-10-22T05:16:52;9.80;96.20
20911;DHT22;10615;42.702;23.314;2022-10-22T05:17:53;9.80;96.10
20911;DHT22;10615;42.702;23.314;2022-10-22T05:18:54;9.70;96.00
20911;DHT22;10615;42.702;23.314;2022-10-22T05:19:54;9.70;96.00
20911;DHT22;10615;42.702;23.314;2022-10-22T05:20:55;9.70;96.00
20911;DHT22;10615;42.702;23.314;2022-10-22T05:21:58;9.70;95.90
20911;DHT22;10615;42.702;23.314;2022-10-22T05:22:59;9.70;95.70
20911;DHT22;10615;42.702;23.314;2022-10-22T05:24:00;9.60;95.60
20911;DHT22;10615;42.702;23.314;2022-10-22T05:25:00;9.60;95.90
20911;DHT22;10615;42.702;23.314;2022-10-22T05:26:06;9.60;95.40
20911;DHT22;10615;42.702;23.314;2022-10-22T05:27:07;9.60;95.40
20911;DHT22;10615;42.702;23.314;2022-10-22T05:28:07;9.50;95.30
20911;DHT22;10615;42.702;23.314;2022-10-22T05:29:08;9.50;95.40
20911;DHT22;10615;42.702;23.314;2022-10-22T05:30:09;9.60;95.40
20911;DHT22;10615;42.702;23.314;2022-10-22T05:31:11;9.60;95.40
20911;DHT22;10615;42.702;23.314;2022-10-22T05:32:12;9.60;95.30
20911;DHT22;10615;42.702;23.314;2022-10-22T05:33:13;9.60;95.10
20911;DHT22;10615;42.702;23.314;2022-10-22T05:34:14;9.60;95.10
20911;DHT22;10615;42.702;23.314;2022-10-22T05:35:15;9.70;95.10
20911;DHT22;10615;42.702;23.314;2022-10-22T05:36:18;9.70;94.90
20911;DHT22;10615;42.702;23.314;2022-10-22T05:37:19;9.70;95.00
20911;DHT22;10615;42.702;23.314;2022-10-22T05:38:20;9.80;94.90
20911;DHT22;10615;42.702;23.314;2022-10-22T05:39:21;9.90;94.90
20911;DHT22;10615;42.702;23.314;2022-10-22T05:40:22;10.00;94.70
20911;DHT22;10615;42.702;23.314;2022-10-22T05:41:24;10.00;94.40
20911;DHT22;10615;42.702;23.314;2022-10-22T05:42:25;10.00;94.20
20911;DHT22;10615;42.702;23.314;2022-10-22T05:43:30;10.10;93.90
20911;DHT22;10615;42.702;23.314;2022-10-22T05:44:31;10.10;93.60
20911;DHT22;10615;42.702;23.314;2022-10-22T05:45:36;10.10;93.30
20911;DHT22;10615;42.702;23.314;2022-10-22T05:46:36;10.20;93.50
20911;DHT22;10615;42.702;23.314;2022-10-22T05:47:37;10.20;92.80
20911;DHT22;10615;42.702;23.314;2022-10-22T05:48:38;10.20;92.50
20911;DHT22;10615;42.702;23.314;2022-10-22T05:49:39;10.20;92.30
20911;DHT22;10615;42.702;23.314;2022-10-22T05:50:39;10.50;92.70
20911;DHT22;10615;42.702;23.314;2022-10-22T05:51:40;11.00;92.40
20911;DHT22;10615;42.702;23.314;2022-10-22T05:52:41;11.60;92.00
20911;DHT22;10615;42.702;23.314;2022-10-22T05:53:42;12.00;90.80
20911;DHT22;10615;42.702;23.314;2022-10-22T05:54:42;12.20;88.90
20911;DHT22;10615;42.702;23.314;2022-10-22T05:55:43;12.30;86.60
20911;DHT22;10615;42.702;23.314;2022-10-22T05:56:44;12.20;85.00
20911;DHT22;10615;42.702;23.314;2022-10-22T05:57:45;12.20;84.30
20911;DHT22;10615;42.702;23.314;2022-10-22T05:58:46;12.20;83.90
20911;DHT22;10615;42.702;23.314;2022-10-22T05:59:47;12.10;83.60
20911;DHT22;10615;42.702;23.314;2022-10-22T06:00:47;12.00;83.60
20911;DHT22;10615;42.702;23.314;2022-10-22T06:01:48;12.00;84.10
20911;DHT22;10615;42.702;23.314;2022-10-22T06:02:49;11.90;84.40
20911;DHT22;10615;42.702;23.314;2022-10-22T06:03:55;11.80;84.90
20911;DHT22;10615;42.702;23.314;2022-10-22T06:04:56;11.90;85.50
20911;DHT22;10615;42.702;23.314;2022-10-22T06:06:02;12.30;85.90
20911;DHT22;10615;42.702;23.314;2022-10-22T06:07:04;12.70;85.20
20911;DHT22;10615;42.702;23.314;2022-10-22T06:08:05;13.00;83.60
20911;DHT22;10615;42.702;23.314;2022-10-22T06:09:28;13.60;82.40
20911;DHT22;10615;42.702;23.314;2022-10-22T06:10:30;13.70;80.10
20911;DHT22;10615;42.702;23.314;2022-10-22T06:11:31;13.80;78.20
20911;DHT22;10615;42.702;23.314;2022-10-22T06:12:31;14.10;77.80
20911;DHT22;10615;42.702;23.314;2022-10-22T06:13:32;14.80;77.20
20911;DHT22;10615;42.702;23.314;2022-10-22T06:14:33;15.50;75.50
20911;DHT22;10615;42.702;23.314;2022-10-22T06:15:33;16.20;73.30
20911;DHT22;10615;42.702;23.314;2022-10-22T06:16:34;16.80;70.80
20911;DHT22;10615;42.702;23.314;2022-10-22T06:17:35;17.40;68.20
20911;DHT22;10615;42.702;23.314;2022-10-22T06:18:35;18.00;66.30
20911;DHT22;10615;42.702;23.314;2022-10-22T06:19:36;18.70;64.30
20911;DHT22;10615;42.702;23.314;2022-10-22T06:20:37;19.40;62.10
20911;DHT22;10615;42.702;23.314;2022-10-22T06:21:38;20.00;59.80
20911;DHT22;10615;42.702;23.314;2022-10-22T06:22:39;20.60;57.80
20911;DHT22;10615;42.702;23.314;2022-10-22T06:23:40;21.10;56.20
20911;DHT22;10615;42.702;23.314;2022-10-22T06:24:41;21.80;54.90
20911;DHT22;10615;42.702;23.314;2022-10-22T06:25:42;22.40;53.10
20911;DHT22;10615;42.702;23.314;2022-10-22T06:26:43;22.90;51.90
20911;DHT22;10615;42.702;23.314;2022-10-22T06:27:49;23.40;50.50
20911;DHT22;10615;42.702;23.314;2022-10-22T06:28:51;24.00;48.60
20911;DHT22;10615;42.702;23.314;2022-10-22T06:29:51;24.50;47.50
20911;DHT22;10615;42.702;23.314;2022-10-22T06:30:52;24.90;46.20
20911;DHT22;10615;42.702;23.314;2022-10-22T06:31:53;24.90;45.10
20911;DHT22;10615;42.702;23.314;2022-10-22T06:32:53;25.10;44.80
20911;DHT22;10615;42.702;23.314;2022-10-22T06:33:55;25.30;44.60
20911;DHT22;10615;42.702;23.314;2022-10-22T06:34:56;25.40;44.30
20911;DHT22;10615;42.702;23.314;2022-10-22T06:36:07;25.30;43.60
20911;DHT22;10615;42.702;23.314;2022-10-22T06:37:09;25.20;43.40
20911;DHT22;10615;42.702;23.314;2022-10-22T06:38:10;25.20;43.40
20911;DHT22;10615;42.702;23.314;2022-10-22T06:39:12;25.40;42.90
20911;DHT22;10615;42.702;23.314;2022-10-22T06:40:14;25.50;42.30
20911;DHT22;10615;42.702;23.314;2022-10-22T06:41:16;25.70;41.90
20911;DHT22;10615;42.702;23.314;2022-10-22T06:42:16;25.90;41.20
20911;DHT22;10615;42.702;23.314;2022-10-22T06:43:17;26.40;40.70
20911;DHT22;10615;42.702;23.314;2022-10-22T06:44:19;27.00;39.80
20911;DHT22;10615;42.702;23.314;2022-10-22T06:45:20;27.40;39.00
20911;DHT22;10615;42.702;23.314;2022-10-22T06:46:21;27.70;38.00
20911;DHT22;10615;42.702;23.314;2022-10-22T06:47:22;28.00;37.60
20911;DHT22;10615;42.702;23.314;2022-10-22T06:48:23;28.40;37.20
20911;DHT22;10615;42.702;23.314;2022-10-22T06:49:23;28.60;36.60
20911;DHT22;10615;42.702;23.314;2022-10-22T06:50:24;28.80;36.00
20911;DHT22;10615;42.702;23.314;2022-10-22T06:51:25;28.70;35.30
20911;DHT22;10615;42.702;23.314;2022-10-22T06:52:26;28.30;35.00
20911;DHT22;10615;42.702;23.314;2022-10-22T06:53:27;27.90;35.20